sensor_id;sensor_type;location;lat;lon;timestamp;P1;durP1;ratioP1;P2;durP2;ratioP2
18796;SDS011;9526;52.612;13.300;2023-03-23T00:00:41;5.47;;;2.70;;
18796;SDS011;9526;52.612;13.300;2023-03-23T00:03:04;4.97;;;2.47;;
18796;SDS011;9526;52.612;13.300;2023-03-23T00:05:27;4.40;;;2.85;;
18796;SDS011;9526;52.612;13.300;2023-03-23T00:07:50;6.18;;;2.55;;
18796;SDS011;9526;52.612;13.300;2023-03-23T00:10:14;4.72;;;2.83;;
18796;SDS011;9526;52.612;13.300;2023-03-23T00:12:37;7.30;;;2.88;;
18796;SDS011;9526;52.612;13.300;2023-03-23T00:15:03;4.47;;;2.80;;
18796;SDS011;9526;52.612;13.300;2023-03-23T00:17:28;3.58;;;2.78;;
18796;SDS011;9526;52.612;13.300;2023-03-23T00:19:53;5.55;;;2.40;;
18796;SDS011;9526;52.612;13.300;2023-03-23T00:22:16;5.88;;;3.10;;
18796;SDS011;9526;52.612;13.300;2023-03-23T00:24:41;7.53;;;2.80;;
18796;SDS011;9526;52.612;13.300;2023-03-23T00:27:05;5.20;;;2.78;;
18796;SDS011;9526;52.612;13.300;2023-03-23T00:29:32;4.07;;;2.72;;
18796;SDS011;9526;52.612;13.300;2023-03-23T00:31:55;6.43;;;2.78;;
18796;SDS011;9526;52.612;13.300;2023-03-23T00:34:18;3.97;;;2.60;;
18796;SDS011;9526;52.612;13.300;2023-03-23T00:36:45;5.53;;;2.67;;
18796;SDS011;9526;52.612;13.300;2023-03-23T00:39:08;4.20;;;2.78;;
18796;SDS011;9526;52.612;13.300;2023-03-23T00:41:32;6.45;;;2.75;;
18796;SDS011;9526;52.612;13.300;2023-03-23T00:43:58;6.13;;;3.22;;
18796;SDS011;9526;52.612;13.300;2023-03-23T00:46:22;5.15;;;2.50;;
18796;SDS011;9526;52.612;13.300;2023-03-23T00:48:45;8.27;;;2.78;;
18796;SDS011;9526;52.612;13.300;2023-03-23T00:51:08;7.65;;;2.70;;
18796;SDS011;9526;52.612;13.300;2023-03-23T00:53:31;5.45;;;2.63;;
18796;SDS011;9526;52.612;13.300;2023-03-23T00:55:54;4.65;;;2.60;;
18796;SDS011;9526;52.612;13.300;2023-03-23T00:58:17;5.43;;;3.03;;
18796;SDS011;9526;52.612;13.300;2023-03-23T01:00:41;4.70;;;2.83;;
18796;SDS011;9526;52.612;13.300;2023-03-23T01:03:05;5.13;;;2.90;;
18796;SDS011;9526;52.612;13.300;2023-03-23T01:05:28;4.40;;;2.83;;
18796;SDS011;9526;52.612;13.300;2023-03-23T01:07:52;4.68;;;2.83;;
18796;SDS011;9526;52.612;13.300;2023-03-23T01:10:15;5.72;;;2.95;;
18796;SDS011;9526;52.612;13.300;2023-03-23T01:12:38;5.45;;;3.35;;
18796;SDS011;9526;52.612;13.300;2023-03-23T01:15:00;4.63;;;3.00;;
18796;SDS011;9526;52.612;13.300;2023-03-23T01:17:25;4.55;;;2.83;;
18796;SDS011;9526;52.612;13.300;2023-03-23T01:19:47;4.97;;;3.00;;
18796;SDS011;9526;52.612;13.300;2023-03-23T01:22:10;5.30;;;3.05;;
18796;SDS011;9526;52.612;13.300;2023-03-23T01:24:33;5.60;;;2.75;;
18796;SDS011;9526;52.612;13.300;2023-03-23T01:26:56;5.65;;;2.63;;
18796;SDS011;9526;52.612;13.300;2023-03-23T01:29:19;5.80;;;2.72;;
18796;SDS011;9526;52.612;13.300;2023-03-23T01:31:42;5.05;;;3.22;;
18796;SDS011;9526;52.612;13.300;2023-03-23T01:34:06;4.90;;;2.78;;
18796;SDS011;9526;52.612;13.300;2023-03-23T01:36:31;5.55;;;2.80;;
18796;SDS011;9526;52.612;13.300;2023-03-23T01:38:56;7.25;;;2.97;;
18796;SDS011;9526;52.612;13.300;2023-03-23T01:41:19;5.10;;;2.80;;
18796;SDS011;9526;52.612;13.300;2023-03-23T01:43:53;5.65;;;2.67;;
18796;SDS011;9526;52.612;13.300;2023-03-23T01:46:25;7.70;;;3.10;;
18796;SDS011;9526;52.612;13.300;2023-03-23T01:48:49;6.68;;;2.85;;
18796;SDS011;9526;52.612;13.300;2023-03-23T01:51:14;6.82;;;3.20;;
18796;SDS011;9526;52.612;13.300;2023-03-23T01:53:42;5.55;;;2.90;;
18796;SDS011;9526;52.612;13.300;2023-03-23T01:56:08;4.95;;;2.90;;
18796;SDS011;9526;52.612;13.300;2023-03-23T01:58:34;4.93;;;2.70;;
18796;SDS011;9526;52.612;13.300;2023-03-23T02:01:01;5.05;;;2.78;;
18796;SDS011;9526;52.612;13.300;2023-03-23T02:03:28;6.28;;;3.10;;
18796;SDS011;9526;52.612;13.300;2023-03-23T02:05:53;4.25;;;2.80;;
18796;SDS011;9526;52.612;13.300;2023-03-23T02:08:30;3.85;;;3.20;;
18796;SDS011;9526;52.612;13.300;2023-03-23T02:10:56;3.17;;;2.60;;
18796;SDS011;9526;52.612;13.300;2023-03-23T02:13:18;5.72;;;3.05;;
18796;SDS011;9526;52.612;13.300;2023-03-23T02:15:44;4.53;;;3.20;;
18796;SDS011;9526;52.612;13.300;2023-03-23T02:18:15;3.83;;;2.85;;
18796;SDS011;9526;52.612;13.300;2023-03-23T02:27:20;4.05;;;2.55;;
18796;SDS011;9526;52.612;13.300;2023-03-23T02:30:40;7.60;;;2.80;;
18796;SDS011;9526;52.612;13.300;2023-03-23T02:33:18;6.18;;;2.83;;
18796;SDS011;9526;52.612;13.300;2023-03-23T02:36:04;4.35;;;2.65;;
18796;SDS011;9526;52.612;13.300;2023-03-23T02:38:35;4.53;;;3.10;;
18796;SDS011;9526;52.612;13.300;2023-03-23T02:41:03;4.78;;;3.25;;
18796;SDS011;9526;52.612;13.300;2023-03-23T02:43:27;5.75;;;3.60;;
18796;SDS011;9526;52.612;13.300;2023-03-23T02:45:56;5.80;;;3.17;;
18796;SDS011;9526;52.612;13.300;2023-03-23T02:48:24;5.65;;;3.42;;
18796;SDS011;9526;52.612;13.300;2023-03-23T02:50:51;9.15;;;3.38;;
18796;SDS011;9526;52.612;13.300;2023-03-23T02:53:16;4.13;;;3.20;;
18796;SDS011;9526;52.612;13.300;2023-03-23T02:55:45;6.57;;;3.55;;
18796;SDS011;9526;52.612;13.300;2023-03-23T02:58:12;6.80;;;3.72;;
18796;SDS011;9526;52.612;13.300;2023-03-23T03:00:37;4.15;;;3.38;;
18796;SDS011;9526;52.612;13.300;2023-03-23T03:03:01;7.63;;;3.50;;
18796;SDS011;9526;52.612;13.300;2023-03-23T03:05:28;7.13;;;3.42;;
18796;SDS011;9526;52.612;13.300;2023-03-23T03:08:00;6.88;;;3.10;;
18796;SDS011;9526;52.612;13.300;2023-03-23T03:10:36;4.40;;;3.28;;
18796;SDS011;9526;52.612;13.300;2023-03-23T03:13:07;4.35;;;2.90;;
18796;SDS011;9526;52.612;13.300;2023-03-23T03:15:40;6.47;;;3.00;;
18796;SDS011;9526;52.612;13.300;2023-03-23T03:18:09;4.55;;;3.00;;
18796;SDS011;9526;52.612;13.300;2023-03-23T03:20:40;4.20;;;2.80;;
18796;SDS011;9526;52.612;13.300;2023-03-23T03:23:10;4.72;;;3.30;;
18796;SDS011;9526;52.612;13.300;2023-03-23T03:25:37;4.85;;;3.22;;
18796;SDS011;9526;52.612;13.300;2023-03-23T03:28:01;3.83;;;3.20;;
18796;SDS011;9526;52.612;13.300;2023-03-23T03:30:38;5.28;;;3.10;;
18796;SDS011;9526;52.612;13.300;2023-03-23T03:33:05;3.92;;;2.90;;
18796;SDS011;9526;52.612;13.300;2023-03-23T03:35:28;6.57;;;3.60;;
18796;SDS011;9526;52.612;13.300;2023-03-23T03:37:54;4.90;;;3.10;;
18796;SDS011;9526;52.612;13.300;2023-03-23T03:40:18;5.93;;;3.45;;
18796;SDS011;9526;52.612;13.300;2023-03-23T03:42:44;6.07;;;4.07;;
18796;SDS011;9526;52.612;13.300;2023-03-23T03:45:08;6.28;;;3.83;;
18796;SDS011;9526;52.612;13.300;2023-03-23T03:47:34;7.53;;;4.35;;
18796;SDS011;9526;52.612;13.300;2023-03-23T03:49:57;6.28;;;4.38;;
18796;SDS011;9526;52.612;13.300;2023-03-23T03:52:20;5.20;;;4.30;;
18796;SDS011;9526;52.612;13.300;2023-03-23T03:54:44;6.25;;;3.90;;
18796;SDS011;9526;52.612;13.300;2023-03-23T03:57:07;8.52;;;4.45;;
18796;SDS011;9526;52.612;13.300;2023-03-23T03:59:52;7.82;;;3.90;;
18796;SDS011;9526;52.612;13.300;2023-03-23T04:02:38;8.68;;;4.40;;
18796;SDS011;9526;52.612;13.300;2023-03-23T04:05:02;7.90;;;4.27;;
18796;SDS011;9526;52.612;13.300;2023-03-23T04:07:26;7.95;;;4.28;;
18796;SDS011;9526;52.612;13.300;2023-03-23T04:09:52;5.93;;;4.30;;
18796;SDS011;9526;52.612;13.300;2023-03-23T04:12:15;8.45;;;4.30;;
18796;SDS011;9526;52.612;13.300;2023-03-23T04:14:50;6.03;;;4.72;;
18796;SDS011;9526;52.612;13.300;2023-03-23T04:17:13;7.53;;;4.60;;
18796;SDS011;9526;52.612;13.300;2023-03-23T04:19:37;7.72;;;3.85;;
18796;SDS011;9526;52.612;13.300;2023-03-23T04:22:00;7.32;;;4.25;;
18796;SDS011;9526;52.612;13.300;2023-03-23T04:24:26;7.20;;;3.85;;
18796;SDS011;9526;52.612;13.300;2023-03-23T04:26:53;6.63;;;3.90;;
18796;SDS011;9526;52.612;13.300;2023-03-23T04:29:20;11.68;;;3.90;;
18796;SDS011;9526;52.612;13.300;2023-03-23T04:32:01;7.78;;;3.95;;
18796;SDS011;9526;52.612;13.300;2023-03-23T04:34:30;9.48;;;3.80;;
18796;SDS011;9526;52.612;13.300;2023-03-23T04:36:55;5.63;;;4.00;;
18796;SDS011;9526;52.612;13.300;2023-03-23T04:39:22;6.20;;;3.70;;
18796;SDS011;9526;52.612;13.300;2023-03-23T04:41:46;4.97;;;4.07;;
18796;SDS011;9526;52.612;13.300;2023-03-23T04:44:18;7.65;;;4.20;;
18796;SDS011;9526;52.612;13.300;2023-03-23T04:46:56;7.82;;;4.32;;
18796;SDS011;9526;52.612;13.300;2023-03-23T04:49:18;7.38;;;4.30;;
18796;SDS011;9526;52.612;13.300;2023-03-23T04:51:46;7.35;;;4.43;;
18796;SDS011;9526;52.612;13.300;2023-03-23T04:54:29;6.25;;;4.07;;
18796;SDS011;9526;52.612;13.300;2023-03-23T04:56:54;5.45;;;4.20;;
18796;SDS011;9526;52.612;13.300;2023-03-23T04:59:21;11.30;;;4.38;;
18796;SDS011;9526;52.612;13.300;2023-03-23T05:01:58;5.90;;;4.63;;
18796;SDS011;9526;52.612;13.300;2023-03-23T05:04:22;5.57;;;4.38;;
18796;SDS011;9526;52.612;13.300;2023-03-23T05:06:54;7.00;;;4.65;;
18796;SDS011;9526;52.612;13.300;2023-03-23T05:09:21;6.18;;;4.80;;
18796;SDS011;9526;52.612;13.300;2023-03-23T05:11:44;13.25;;;4.85;;
18796;SDS011;9526;52.612;13.300;2023-03-23T05:14:07;8.13;;;5.00;;
18796;SDS011;9526;52.612;13.300;2023-03-23T05:16:32;7.40;;;5.22;;
18796;SDS011;9526;52.612;13.300;2023-03-23T05:18:57;8.50;;;5.30;;
18796;SDS011;9526;52.612;13.300;2023-03-23T05:21:21;10.85;;;5.53;;
18796;SDS011;9526;52.612;13.300;2023-03-23T05:23:48;8.48;;;5.40;;
18796;SDS011;9526;52.612;13.300;2023-03-23T05:26:15;8.23;;;5.55;;
18796;SDS011;9526;52.612;13.300;2023-03-23T05:28:38;9.35;;;5.30;;
18796;SDS011;9526;52.612;13.300;2023-03-23T05:31:09;9.23;;;5.07;;
18796;SDS011;9526;52.612;13.300;2023-03-23T05:33:35;9.27;;;5.72;;
18796;SDS011;9526;52.612;13.300;2023-03-23T05:36:09;8.52;;;6.00;;
18796;SDS011;9526;52.612;13.300;2023-03-23T05:38:52;10.27;;;5.78;;
18796;SDS011;9526;52.612;13.300;2023-03-23T05:41:15;9.25;;;6.10;;
18796;SDS011;9526;52.612;13.300;2023-03-23T05:43:38;12.70;;;6.95;;
18796;SDS011;9526;52.612;13.300;2023-03-23T05:46:21;12.63;;;7.85;;
18796;SDS011;9526;52.612;13.300;2023-03-23T05:48:47;16.35;;;6.97;;
18796;SDS011;9526;52.612;13.300;2023-03-23T05:51:14;10.07;;;6.50;;
18796;SDS011;9526;52.612;13.300;2023-03-23T05:53:38;12.85;;;6.80;;
18796;SDS011;9526;52.612;13.300;2023-03-23T05:56:02;14.75;;;6.78;;
18796;SDS011;9526;52.612;13.300;2023-03-23T05:58:40;9.57;;;6.30;;
18796;SDS011;9526;52.612;13.300;2023-03-23T06:01:05;12.70;;;6.97;;
18796;SDS011;9526;52.612;13.300;2023-03-23T06:03:29;10.32;;;6.30;;
18796;SDS011;9526;52.612;13.300;2023-03-23T06:06:22;19.67;;;6.90;;
18796;SDS011;9526;52.612;13.300;2023-03-23T06:08:57;11.65;;;6.10;;
18796;SDS011;9526;52.612;13.300;2023-03-23T06:11:33;11.73;;;6.55;;
18796;SDS011;9526;52.612;13.300;2023-03-23T06:14:19;11.50;;;6.20;;
18796;SDS011;9526;52.612;13.300;2023-03-23T06:16:42;11.73;;;5.72;;
18796;SDS011;9526;52.612;13.300;2023-03-23T06:19:08;12.57;;;5.90;;
18796;SDS011;9526;52.612;13.300;2023-03-23T06:21:38;10.20;;;5.65;;
18796;SDS011;9526;52.612;13.300;2023-03-23T06:24:27;14.07;;;5.88;;
18796;SDS011;9526;52.612;13.300;2023-03-23T06:26:50;10.48;;;5.25;;
18796;SDS011;9526;52.612;13.300;2023-03-23T06:29:15;8.68;;;4.53;;
18796;SDS011;9526;52.612;13.300;2023-03-23T06:31:44;8.05;;;4.47;;
18796;SDS011;9526;52.612;13.300;2023-03-23T06:34:09;8.80;;;3.97;;
18796;SDS011;9526;52.612;13.300;2023-03-23T06:36:43;8.05;;;4.30;;
18796;SDS011;9526;52.612;13.300;2023-03-23T06:39:10;7.57;;;4.35;;
18796;SDS011;9526;52.612;13.300;2023-03-23T06:42:00;10.00;;;3.92;;
18796;SDS011;9526;52.612;13.300;2023-03-23T06:44:27;8.93;;;3.70;;
18796;SDS011;9526;52.612;13.300;2023-03-23T06:46:50;4.53;;;3.42;;
18796;SDS011;9526;52.612;13.300;2023-03-23T06:49:19;11.00;;;3.58;;
18796;SDS011;9526;52.612;13.300;2023-03-23T06:51:48;7.47;;;3.78;;
18796;SDS011;9526;52.612;13.300;2023-03-23T06:54:10;6.90;;;3.63;;
18796;SDS011;9526;52.612;13.300;2023-03-23T06:56:35;5.05;;;3.42;;
18796;SDS011;9526;52.612;13.300;2023-03-23T06:58:57;9.07;;;3.58;;
18796;SDS011;9526;52.612;13.300;2023-03-23T07:01:20;7.53;;;2.72;;
18796;SDS011;9526;52.612;13.300;2023-03-23T07:03:50;5.90;;;3.10;;
18796;SDS011;9526;52.612;13.300;2023-03-23T07:06:19;5.45;;;3.30;;
18796;SDS011;9526;52.612;13.300;2023-03-23T07:08:50;7.07;;;3.35;;
18796;SDS011;9526;52.612;13.300;2023-03-23T07:11:16;6.22;;;3.10;;
18796;SDS011;9526;52.612;13.300;2023-03-23T07:13:39;7.63;;;3.15;;
18796;SDS011;9526;52.612;13.300;2023-03-23T07:16:04;10.82;;;3.53;;
18796;SDS011;9526;52.612;13.300;2023-03-23T07:18:29;7.30;;;3.58;;
18796;SDS011;9526;52.612;13.300;2023-03-23T07:20:52;7.07;;;3.40;;
18796;SDS011;9526;52.612;13.300;2023-03-23T07:23:21;8.65;;;3.45;;
18796;SDS011;9526;52.612;13.300;2023-03-23T07:26:02;6.80;;;2.78;;
18796;SDS011;9526;52.612;13.300;2023-03-23T07:28:41;5.35;;;3.20;;
18796;SDS011;9526;52.612;13.300;2023-03-23T07:31:21;7.47;;;3.25;;
18796;SDS011;9526;52.612;13.300;2023-03-23T07:33:45;5.32;;;3.00;;
18796;SDS011;9526;52.612;13.300;2023-03-23T07:36:08;6.47;;;3.20;;
18796;SDS011;9526;52.612;13.300;2023-03-23T07:38:32;6.25;;;3.03;;
18796;SDS011;9526;52.612;13.300;2023-03-23T07:40:55;10.88;;;2.95;;
18796;SDS011;9526;52.612;13.300;2023-03-23T07:43:20;8.10;;;3.20;;
18796;SDS011;9526;52.612;13.300;2023-03-23T07:46:01;8.40;;;3.22;;
18796;SDS011;9526;52.612;13.300;2023-03-23T07:48:34;6.78;;;3.17;;
18796;SDS011;9526;52.612;13.300;2023-03-23T07:50:57;6.55;;;3.30;;
18796;SDS011;9526;52.612;13.300;2023-03-23T07:53:23;5.18;;;3.15;;
18796;SDS011;9526;52.612;13.300;2023-03-23T07:55:59;7.78;;;3.13;;
18796;SDS011;9526;52.612;13.300;2023-03-23T07:58:43;7.13;;;3.08;;
18796;SDS011;9526;52.612;13.300;2023-03-23T08:01:06;5.47;;;2.75;;
18796;SDS011;9526;52.612;13.300;2023-03-23T08:03:30;4.03;;;2.70;;
18796;SDS011;9526;52.612;13.300;2023-03-23T08:06:07;6.80;;;3.20;;
18796;SDS011;9526;52.612;13.300;2023-03-23T08:08:49;5.57;;;2.63;;
18796;SDS011;9526;52.612;13.300;2023-03-23T08:11:31;5.80;;;2.95;;
18796;SDS011;9526;52.612;13.300;2023-03-23T08:14:31;4.00;;;2.75;;
18796;SDS011;9526;52.612;13.300;2023-03-23T08:17:26;5.65;;;2.88;;
18796;SDS011;9526;52.612;13.300;2023-03-23T08:20:03;4.07;;;2.97;;
18796;SDS011;9526;52.612;13.300;2023-03-23T08:22:50;7.05;;;3.13;;
18796;SDS011;9526;52.612;13.300;2023-03-23T08:25:32;7.07;;;3.00;;
18796;SDS011;9526;52.612;13.300;2023-03-23T08:28:15;4.50;;;2.85;;
18796;SDS011;9526;52.612;13.300;2023-03-23T08:30:58;5.85;;;2.90;;
18796;SDS011;9526;52.612;13.300;2023-03-23T08:33:47;5.32;;;2.50;;
18796;SDS011;9526;52.612;13.300;2023-03-23T08:36:29;5.43;;;2.42;;
18796;SDS011;9526;52.612;13.300;2023-03-23T08:39:18;6.25;;;3.05;;
18796;SDS011;9526;52.612;13.300;2023-03-23T08:42:03;7.25;;;2.90;;
18796;SDS011;9526;52.612;13.300;2023-03-23T08:44:50;6.80;;;2.90;;
18796;SDS011;9526;52.612;13.300;2023-03-23T08:47:34;4.00;;;2.80;;
18796;SDS011;9526;52.612;13.300;2023-03-23T08:50:17;5.38;;;2.85;;
18796;SDS011;9526;52.612;13.300;2023-03-23T08:53:03;8.18;;;2.85;;
18796;SDS011;9526;52.612;13.300;2023-03-23T08:55:46;8.65;;;3.40;;
18796;SDS011;9526;52.612;13.300;2023-03-23T08:58:29;6.63;;;3.17;;
18796;SDS011;9526;52.612;13.300;2023-03-23T09:01:24;5.35;;;3.00;;
18796;SDS011;9526;52.612;13.300;2023-03-23T09:04:08;4.40;;;3.20;;
18796;SDS011;9526;52.612;13.300;2023-03-23T09:07:04;5.45;;;2.90;;
18796;SDS011;9526;52.612;13.300;2023-03-23T09:09:26;6.68;;;2.72;;
18796;SDS011;9526;52.612;13.300;2023-03-23T09:11:49;4.70;;;2.70;;
18796;SDS011;9526;52.612;13.300;2023-03-23T09:14:11;4.90;;;2.90;;
18796;SDS011;9526;52.612;13.300;2023-03-23T09:16:34;3.17;;;2.40;;
18796;SDS011;9526;52.612;13.300;2023-03-23T09:18:57;5.20;;;2.50;;
18796;SDS011;9526;52.612;13.300;2023-03-23T09:21:21;4.10;;;2.38;;
18796;SDS011;9526;52.612;13.300;2023-03-23T09:23:44;6.10;;;2.63;;
18796;SDS011;9526;52.612;13.300;2023-03-23T09:26:07;5.53;;;2.28;;
18796;SDS011;9526;52.612;13.300;2023-03-23T09:28:29;4.13;;;2.40;;
18796;SDS011;9526;52.612;13.300;2023-03-23T09:30:54;4.65;;;2.47;;
18796;SDS011;9526;52.612;13.300;2023-03-23T09:33:18;3.72;;;2.13;;
18796;SDS011;9526;52.612;13.300;2023-03-23T09:35:40;5.75;;;2.30;;
18796;SDS011;9526;52.612;13.300;2023-03-23T09:38:05;5.13;;;2.28;;
18796;SDS011;9526;52.612;13.300;2023-03-23T09:40:29;3.75;;;2.45;;
18796;SDS011;9526;52.612;13.300;2023-03-23T09:43:13;3.88;;;1.88;;
18796;SDS011;9526;52.612;13.300;2023-03-23T09:46:12;4.15;;;1.90;;
18796;SDS011;9526;52.612;13.300;2023-03-23T09:48:51;3.15;;;2.10;;
18796;SDS011;9526;52.612;13.300;2023-03-23T09:51:20;3.78;;;2.22;;
18796;SDS011;9526;52.612;13.300;2023-03-23T09:53:56;5.65;;;1.95;;
18796;SDS011;9526;52.612;13.300;2023-03-23T09:56:25;1.92;;;1.55;;
18796;SDS011;9526;52.612;13.300;2023-03-23T09:58:53;4.72;;;2.22;;
18796;SDS011;9526;52.612;13.300;2023-03-23T10:01:21;3.60;;;2.15;;
18796;SDS011;9526;52.612;13.300;2023-03-23T10:03:48;4.82;;;1.90;;
18796;SDS011;9526;52.612;13.300;2023-03-23T10:06:11;6.25;;;1.88;;
18796;SDS011;9526;52.612;13.300;2023-03-23T10:08:35;4.10;;;1.90;;
18796;SDS011;9526;52.612;13.300;2023-03-23T10:11:07;4.35;;;2.00;;
18796;SDS011;9526;52.612;13.300;2023-03-23T10:13:44;2.78;;;1.85;;
18796;SDS011;9526;52.612;13.300;2023-03-23T10:16:20;3.42;;;1.70;;
18796;SDS011;9526;52.612;13.300;2023-03-23T10:18:48;2.05;;;1.83;;
18796;SDS011;9526;52.612;13.300;2023-03-23T10:21:17;3.72;;;1.98;;
18796;SDS011;9526;52.612;13.300;2023-03-23T10:23:50;2.88;;;2.00;;
18796;SDS011;9526;52.612;13.300;2023-03-23T10:26:22;2.90;;;1.88;;
18796;SDS011;9526;52.612;13.300;2023-03-23T10:28:58;3.22;;;1.60;;
18796;SDS011;9526;52.612;13.300;2023-03-23T10:31:32;3.40;;;1.65;;
18796;SDS011;9526;52.612;13.300;2023-03-23T10:33:59;2.17;;;1.83;;
18796;SDS011;9526;52.612;13.300;2023-03-23T10:36:31;4.78;;;1.90;;
18796;SDS011;9526;52.612;13.300;2023-03-23T10:39:00;3.25;;;2.35;;
18796;SDS011;9526;52.612;13.300;2023-03-23T10:41:33;3.33;;;1.80;;
18796;SDS011;9526;52.612;13.300;2023-03-23T10:43:56;3.55;;;1.90;;
18796;SDS011;9526;52.612;13.300;2023-03-23T10:46:26;4.35;;;1.65;;
18796;SDS011;9526;52.612;13.300;2023-03-23T10:48:58;3.15;;;1.70;;
18796;SDS011;9526;52.612;13.300;2023-03-23T10:51:25;5.60;;;1.75;;
18796;SDS011;9526;52.612;13.300;2023-03-23T10:53:56;4.30;;;1.70;;
18796;SDS011;9526;52.612;13.300;2023-03-23T10:56:23;2.58;;;1.70;;
18796;SDS011;9526;52.612;13.300;2023-03-23T10:58:50;2.67;;;1.52;;
18796;SDS011;9526;52.612;13.300;2023-03-23T11:01:13;2.95;;;1.60;;
18796;SDS011;9526;52.612;13.300;2023-03-23T11:03:39;2.47;;;1.60;;
18796;SDS011;9526;52.612;13.300;2023-03-23T11:06:05;2.17;;;1.52;;
18796;SDS011;9526;52.612;13.300;2023-03-23T11:08:31;2.67;;;1.50;;
18796;SDS011;9526;52.612;13.300;2023-03-23T11:10:58;3.60;;;1.77;;
18796;SDS011;9526;52.612;13.300;2023-03-23T11:13:32;3.22;;;1.70;;
18796;SDS011;9526;52.612;13.300;2023-03-23T11:15:57;2.63;;;1.60;;
18796;SDS011;9526;52.612;13.300;2023-03-23T11:18:23;3.42;;;1.70;;
18796;SDS011;9526;52.612;13.300;2023-03-23T11:20:49;1.40;;;1.27;;
18796;SDS011;9526;52.612;13.300;2023-03-23T11:23:21;3.25;;;1.90;;
18796;SDS011;9526;52.612;13.300;2023-03-23T11:25:50;4.05;;;1.70;;
18796;SDS011;9526;52.612;13.300;2023-03-23T11:28:18;1.80;;;1.40;;
18796;SDS011;9526;52.612;13.300;2023-03-23T11:30:41;1.70;;;1.50;;
18796;SDS011;9526;52.612;13.300;2023-03-23T11:33:05;3.13;;;1.60;;
18796;SDS011;9526;52.612;13.300;2023-03-23T11:35:29;4.32;;;1.50;;
18796;SDS011;9526;52.612;13.300;2023-03-23T11:37:52;3.47;;;1.50;;
18796;SDS011;9526;52.612;13.300;2023-03-23T11:40:18;2.55;;;1.73;;
18796;SDS011;9526;52.612;13.300;2023-03-23T11:42:44;3.35;;;1.92;;
18796;SDS011;9526;52.612;13.300;2023-03-23T11:45:17;3.05;;;1.42;;
18796;SDS011;9526;52.612;13.300;2023-03-23T11:47:43;1.88;;;1.63;;
18796;SDS011;9526;52.612;13.300;2023-03-23T11:50:20;4.40;;;1.60;;
18796;SDS011;9526;52.612;13.300;2023-03-23T11:52:46;4.15;;;1.80;;
18796;SDS011;9526;52.612;13.300;2023-03-23T11:55:14;4.55;;;1.70;;
18796;SDS011;9526;52.612;13.300;2023-03-23T11:57:41;1.67;;;1.40;;
18796;SDS011;9526;52.612;13.300;2023-03-23T12:02:42;2.72;;;1.80;;
18796;SDS011;9526;52.612;13.300;2023-03-23T12:05:51;4.95;;;1.60;;
18796;SDS011;9526;52.612;13.300;2023-03-23T12:08:26;2.58;;;1.70;;
18796;SDS011;9526;52.612;13.300;2023-03-23T12:11:06;3.42;;;2.28;;
18796;SDS011;9526;52.612;13.300;2023-03-23T12:13:42;4.25;;;2.05;;
18796;SDS011;9526;52.612;13.300;2023-03-23T12:16:23;2.75;;;1.80;;
18796;SDS011;9526;52.612;13.300;2023-03-23T12:18:58;5.13;;;2.17;;
18796;SDS011;9526;52.612;13.300;2023-03-23T12:21:34;1.98;;;1.63;;
18796;SDS011;9526;52.612;13.300;2023-03-23T12:24:11;2.55;;;1.45;;
18796;SDS011;9526;52.612;13.300;2023-03-23T12:26:47;3.67;;;1.77;;
18796;SDS011;9526;52.612;13.300;2023-03-23T12:29:26;2.97;;;1.80;;
18796;SDS011;9526;52.612;13.300;2023-03-23T12:32:17;4.25;;;1.60;;
18796;SDS011;9526;52.612;13.300;2023-03-23T12:35:03;1.95;;;1.50;;
18796;SDS011;9526;52.612;13.300;2023-03-23T12:37:42;2.70;;;1.58;;
18796;SDS011;9526;52.612;13.300;2023-03-23T12:40:30;5.22;;;1.75;;
18796;SDS011;9526;52.612;13.300;2023-03-23T12:43:10;3.38;;;1.55;;
18796;SDS011;9526;52.612;13.300;2023-03-23T12:45:55;2.22;;;1.88;;
18796;SDS011;9526;52.612;13.300;2023-03-23T12:48:32;2.22;;;1.75;;
18796;SDS011;9526;52.612;13.300;2023-03-23T12:51:04;3.55;;;1.80;;
18796;SDS011;9526;52.612;13.300;2023-03-23T12:53:43;5.20;;;1.50;;
18796;SDS011;9526;52.612;13.300;2023-03-23T12:56:15;3.72;;;1.60;;
18796;SDS011;9526;52.612;13.300;2023-03-23T12:58:44;4.45;;;1.50;;
18796;SDS011;9526;52.612;13.300;2023-03-23T13:01:11;4.28;;;1.73;;
18796;SDS011;9526;52.612;13.300;2023-03-23T13:03:44;2.83;;;1.73;;
18796;SDS011;9526;52.612;13.300;2023-03-23T13:06:15;2.53;;;1.83;;
18796;SDS011;9526;52.612;13.300;2023-03-23T13:08:47;3.63;;;1.73;;
18796;SDS011;9526;52.612;13.300;2023-03-23T13:11:15;2.83;;;1.60;;
18796;SDS011;9526;52.612;13.300;2023-03-23T13:13:47;4.88;;;1.90;;
18796;SDS011;9526;52.612;13.300;2023-03-23T13:16:14;2.42;;;1.70;;
18796;SDS011;9526;52.612;13.300;2023-03-23T13:18:48;4.50;;;1.80;;
18796;SDS011;9526;52.612;13.300;2023-03-23T13:21:21;5.68;;;2.03;;
18796;SDS011;9526;52.612;13.300;2023-03-23T13:23:50;4.78;;;1.55;;
18796;SDS011;9526;52.612;13.300;2023-03-23T13:26:18;2.78;;;1.75;;
18796;SDS011;9526;52.612;13.300;2023-03-23T13:28:48;3.22;;;1.52;;
18796;SDS011;9526;52.612;13.300;2023-03-23T13:31:20;3.33;;;1.50;;
18796;SDS011;9526;52.612;13.300;2023-03-23T13:33:51;3.40;;;2.05;;
18796;SDS011;9526;52.612;13.300;2023-03-23T13:36:27;2.55;;;1.60;;
18796;SDS011;9526;52.612;13.300;2023-03-23T13:38:54;5.70;;;1.52;;
18796;SDS011;9526;52.612;13.300;2023-03-23T13:41:20;3.17;;;1.60;;
18796;SDS011;9526;52.612;13.300;2023-03-23T13:43:43;3.15;;;1.65;;
18796;SDS011;9526;52.612;13.300;2023-03-23T13:46:07;2.28;;;1.50;;
18796;SDS011;9526;52.612;13.300;2023-03-23T13:48:44;3.97;;;1.42;;
18796;SDS011;9526;52.612;13.300;2023-03-23T13:51:23;4.40;;;1.42;;
18796;SDS011;9526;52.612;13.300;2023-03-23T13:54:06;3.75;;;1.55;;
18796;SDS011;9526;52.612;13.300;2023-03-23T13:56:51;3.90;;;1.45;;
18796;SDS011;9526;52.612;13.300;2023-03-23T13:59:27;3.40;;;1.60;;
18796;SDS011;9526;52.612;13.300;2023-03-23T14:01:54;5.35;;;1.58;;
18796;SDS011;9526;52.612;13.300;2023-03-23T14:04:18;7.35;;;1.80;;
18796;SDS011;9526;52.612;13.300;2023-03-23T14:06:42;4.80;;;1.50;;
18796;SDS011;9526;52.612;13.300;2023-03-23T14:09:24;3.67;;;1.75;;
18796;SDS011;9526;52.612;13.300;2023-03-23T14:11:54;8.38;;;1.90;;
18796;SDS011;9526;52.612;13.300;2023-03-23T14:14:22;4.30;;;2.00;;
18796;SDS011;9526;52.612;13.300;2023-03-23T14:16:49;3.33;;;1.60;;
18796;SDS011;9526;52.612;13.300;2023-03-23T14:19:14;3.65;;;1.40;;
18796;SDS011;9526;52.612;13.300;2023-03-23T14:21:41;4.55;;;1.63;;
18796;SDS011;9526;52.612;13.300;2023-03-23T14:24:12;6.88;;;1.42;;
18796;SDS011;9526;52.612;13.300;2023-03-23T14:26:39;2.78;;;1.50;;
18796;SDS011;9526;52.612;13.300;2023-03-23T14:29:03;2.70;;;1.52;;
18796;SDS011;9526;52.612;13.300;2023-03-23T14:31:27;3.28;;;1.55;;
18796;SDS011;9526;52.612;13.300;2023-03-23T14:33:51;2.95;;;1.30;;
18796;SDS011;9526;52.612;13.300;2023-03-23T14:36:19;3.95;;;1.50;;
18796;SDS011;9526;52.612;13.300;2023-03-23T14:38:43;2.17;;;1.30;;
18796;SDS011;9526;52.612;13.300;2023-03-23T14:41:06;4.80;;;1.70;;
18796;SDS011;9526;52.612;13.300;2023-03-23T14:43:35;4.57;;;1.70;;
18796;SDS011;9526;52.612;13.300;2023-03-23T14:45:58;4.50;;;1.50;;
18796;SDS011;9526;52.612;13.300;2023-03-23T14:48:24;4.30;;;1.60;;
18796;SDS011;9526;52.612;13.300;2023-03-23T14:50:51;1.85;;;1.17;;
18796;SDS011;9526;52.612;13.300;2023-03-23T14:53:19;5.72;;;1.67;;
18796;SDS011;9526;52.612;13.300;2023-03-23T14:55:46;3.75;;;1.75;;
18796;SDS011;9526;52.612;13.300;2023-03-23T14:58:12;6.28;;;1.75;;
18796;SDS011;9526;52.612;13.300;2023-03-23T15:00:40;4.13;;;1.63;;
18796;SDS011;9526;52.612;13.300;2023-03-23T15:03:06;5.05;;;1.60;;
18796;SDS011;9526;52.612;13.300;2023-03-23T15:05:33;3.90;;;1.80;;
18796;SDS011;9526;52.612;13.300;2023-03-23T15:08:02;5.45;;;1.60;;
18796;SDS011;9526;52.612;13.300;2023-03-23T15:10:28;6.13;;;1.65;;